Time;durP1;ratioP1;P1;durP2;ratioP2;P2;SDS_P1;SDS_P2;PMS_P1;PMS_P2;Temp;Humidity;BMP_temperature;BMP_pressure;BME280_temperature;BME280_humidity;BME280_pressure;Samples;Min_cycle;Max_cycle;Signal;HPM_P1;HPM_P2
2022/04/30 00:02:15;;;;;;;;;;;18.90;59.50;;;;;;5052388;28;926;-71
2022/04/30 00:04:44;;;;;;;;;;;18.90;59.50;;;;;;5051681;28;795;-71
2022/04/30 00:07:11;;;;;;;;;;;18.90;59.50;;;;;;5051349;28;807;-71
2022/04/30 00:09:36;;;;;;;;;;;18.90;59.50;;;;;;5052658;28;1456;-72
2022/04/30 00:12:02;;;;;;;;;;;18.90;59.50;;;;;;5052224;28;1242;-71
2022/04/30 00:14:27;;;;;;;;;;;18.90;59.60;;;;;;5051330;28;1173;-71
2022/04/30 00:16:53;;;;;;;;;;;18.90;59.60;;;;;;5052296;28;1180;-71
2022/04/30 00:19:19;;;;;;;;;;;18.90;59.60;;;;;;5052233;28;1906;-70
2022/04/30 00:21:44;;;;;;;;;;;18.90;59.60;;;;;;5051424;28;870;-71
2022/04/30 00:24:10;;;;;;;;;;;18.90;59.60;;;;;;5051494;28;839;-71
2022/04/30 00:26:35;;;;;;;;;;;18.90;59.70;;;;;;5052723;28;780;-71
2022/04/30 00:29:01;;;;;;;;;;;18.90;59.70;;;;;;5052070;28;1212;-70
2022/04/30 00:31:26;;;;;;;;;;;18.90;59.70;;;;;;5052565;28;866;-71
2022/04/30 00:33:52;;;;;;;;;;;18.90;59.70;;;;;;5051813;28;1208;-70
2022/04/30 00:36:17;;;;;;;;;;;18.90;59.70;;;;;;5052083;28;1091;-71
2022/04/30 00:38:43;;;;;;;;;;;18.90;59.70;;;;;;5050529;28;1179;-71
2022/04/30 00:41:08;;;;;;;;;;;18.90;59.80;;;;;;5052165;28;1890;-71
2022/04/30 00:43:47;;;;;;;;;;;18.90;59.80;;;;;;5050881;28;1013;-71
2022/04/30 00:46:15;;;;;;;;;;;18.90;59.80;;;;;;5052063;28;887;-71
2022/04/30 00:48:41;;;;;;;;;;;18.80;59.80;;;;;;5051587;28;1303;-70
2022/04/30 00:51:10;;;;;;;;;;;18.80;59.80;;;;;;5050975;28;875;-71
2022/04/30 00:53:39;;;;;;;;;;;18.80;59.80;;;;;;5052164;28;1029;-71
2022/04/30 00:56:05;;;;;;;;;;;18.80;59.90;;;;;;5052037;28;807;-71
2022/04/30 00:58:31;;;;;;;;;;;18.80;59.90;;;;;;5050335;28;1298;-71
2022/04/30 01:00:56;;;;;;;;;;;18.80;59.90;;;;;;5051884;28;1939;-71
2022/04/30 01:03:22;;;;;;;;;;;18.80;59.90;;;;;;5052134;28;786;-70
2022/04/30 01:05:49;;;;;;;;;;;18.80;59.90;;;;;;5052054;28;1134;-70
2022/04/30 01:08:14;;;;;;;;;;;18.80;59.90;;;;;;5051542;28;1386;-71
2022/04/30 01:10:39;;;;;;;;;;;18.80;59.90;;;;;;5050802;28;1018;-71
2022/04/30 01:13:05;;;;;;;;;;;18.80;59.90;;;;;;5051842;28;1068;-71
2022/04/30 01:15:30;;;;;;;;;;;18.80;59.90;;;;;;5053631;28;977;-71
2022/04/30 01:17:56;;;;;;;;;;;18.80;60.00;;;;;;5053820;28;839;-71
2022/04/30 01:20:21;;;;;;;;;;;18.80;59.90;;;;;;5053959;28;1961;-71
2022/04/30 01:22:57;;;;;;;;;;;18.80;60.00;;;;;;5054150;28;949;-71
2022/04/30 01:25:23;;;;;;;;;;;18.80;60.00;;;;;;5055363;28;839;-71
2022/04/30 01:27:48;;;;;;;;;;;18.80;60.00;;;;;;5052384;28;2303;-71
2022/04/30 01:30:15;;;;;;;;;;;18.80;60.00;;;;;;5054239;28;1195;-71
2022/04/30 01:38:11;;;;;;;;;;;18.70;60.00;;;;;;5053394;28;1302;-72
2022/04/30 01:40:36;;;;;;;;;;;18.70;60.10;;;;;;5053249;28;1910;-71
2022/04/30 01:43:02;;;;;;;;;;;18.70;60.10;;;;;;5052320;28;1248;-71
2022/04/30 01:45:28;;;;;;;;;;;18.70;60.00;;;;;;5036161;28;1343;-71
2022/04/30 01:47:54;;;;;;;;;;;18.70;60.00;;;;;;5053443;28;1224;-71
2022/04/30 01:50:19;;;;;;;;;;;18.70;60.00;;;;;;5054659;28;1405;-71
2022/04/30 01:52:45;;;;;;;;;;;18.70;60.10;;;;;;5054741;28;1255;-70
2022/04/30 01:55:10;;;;;;;;;;;18.70;60.10;;;;;;5054583;28;1490;-70
2022/04/30 01:57:42;;;;;;;;;;;18.70;60.10;;;;;;5054472;28;1287;-70
2022/04/30 02:00:09;;;;;;;;;;;18.70;60.10;;;;;;5054491;28;1959;-70
2022/04/30 02:02:37;;;;;;;;;;;18.70;60.10;;;;;;5053918;28;2096;-70
2022/04/30 02:05:05;;;;;;;;;;;18.70;60.10;;;;;;5053859;28;2410;-71
2022/04/30 02:07:30;;;;;;;;;;;18.70;60.20;;;;;;5054578;28;1066;-70
2022/04/30 02:09:57;;;;;;;;;;;18.70;60.20;;;;;;5053239;28;1408;-71
2022/04/30 02:12:23;;;;;;;;;;;18.70;60.20;;;;;;5034792;28;1866;-70
2022/04/30 02:14:50;;;;;;;;;;;18.70;60.20;;;;;;5053747;28;819;-71
2022/04/30 02:17:15;;;;;;;;;;;18.70;60.20;;;;;;5036490;28;1538;-72
2022/04/30 02:22:25;;;;;;;;;;;18.70;60.20;;;;;;5054579;28;642;-71
2022/04/30 02:24:51;;;;;;;;;;;18.70;60.30;;;;;;5054825;28;803;-72
2022/04/30 02:27:17;;;;;;;;;;;18.70;60.30;;;;;;5053951;28;780;-72
2022/04/30 02:29:44;;;;;;;;;;;18.70;60.30;;;;;;5053191;28;1205;-69
2022/04/30 02:32:09;;;;;;;;;;;18.70;60.30;;;;;;5054850;28;808;-70
2022/04/30 02:34:35;;;;;;;;;;;18.70;60.30;;;;;;5054221;28;1054;-70
2022/04/30 02:37:03;;;;;;;;;;;18.70;60.30;;;;;;5053946;28;1091;-70
2022/04/30 02:39:29;;;;;;;;;;;18.70;60.40;;;;;;5054044;28;1902;-70
2022/04/30 02:41:55;;;;;;;;;;;18.70;60.30;;;;;;5054337;28;867;-70
2022/04/30 02:44:20;;;;;;;;;;;18.70;60.30;;;;;;5054267;28;851;-71
2022/04/30 02:46:45;;;;;;;;;;;18.70;60.40;;;;;;5054207;28;804;-71
2022/04/30 02:49:11;;;;;;;;;;;18.70;60.40;;;;;;5054290;28;1274;-71
2022/04/30 02:51:37;;;;;;;;;;;18.60;60.30;;;;;;5053887;28;954;-71
2022/04/30 02:54:02;;;;;;;;;;;18.60;60.30;;;;;;5053932;28;894;-71
2022/04/30 02:56:28;;;;;;;;;;;18.60;60.30;;;;;;5053985;28;1100;-70
2022/04/30 03:01:37;;;;;;;;;;;18.70;60.40;;;;;;5054017;28;665;-70
2022/04/30 03:04:03;;;;;;;;;;;18.60;60.40;;;;;;5052251;28;926;-71
2022/04/30 03:06:31;;;;;;;;;;;18.60;60.40;;;;;;5053822;28;863;-71
2022/04/30 03:08:58;;;;;;;;;;;18.60;60.40;;;;;;5053319;28;1260;-71
2022/04/30 03:11:23;;;;;;;;;;;18.60;60.40;;;;;;5053766;28;934;-72
2022/04/30 03:13:48;;;;;;;;;;;18.60;60.40;;;;;;5053603;28;1127;-70
2022/04/30 03:21:42;;;;;;;;;;;18.60;60.40;;;;;;5052570;28;673;-69
2022/04/30 03:24:08;;;;;;;;;;;18.60;60.50;;;;;;5053486;28;886;-69
2022/04/30 03:26:33;;;;;;;;;;;18.60;60.40;;;;;;5053481;28;1013;-69
2022/04/30 03:28:59;;;;;;;;;;;18.60;60.50;;;;;;5052803;28;1174;-69
2022/04/30 03:31:24;;;;;;;;;;;18.60;60.50;;;;;;5053214;28;914;-69
2022/04/30 03:33:50;;;;;;;;;;;18.60;60.40;;;;;;5053185;28;694;-69
2022/04/30 03:36:18;;;;;;;;;;;18.60;60.40;;;;;;5052024;28;1142;-69
2022/04/30 03:38:44;;;;;;;;;;;18.60;60.50;;;;;;5051182;28;1208;-69
2022/04/30 03:41:09;;;;;;;;;;;18.60;60.50;;;;;;5053369;28;1939;-69
2022/04/30 03:43:35;;;;;;;;;;;18.60;60.50;;;;;;5053029;28;867;-68
2022/04/30 03:46:00;;;;;;;;;;;18.60;60.40;;;;;;5053136;28;852;-68
2022/04/30 03:48:25;;;;;;;;;;;18.60;60.50;;;;;;5052788;28;1199;-69
2022/04/30 03:50:52;;;;;;;;;;;18.60;60.50;;;;;;5053201;28;906;-70
2022/04/30 03:53:18;;;;;;;;;;;18.60;60.50;;;;;;5053241;28;874;-69
2022/04/30 03:55:43;;;;;;;;;;;18.60;60.50;;;;;;5052478;28;1905;-67
2022/04/30 03:58:09;;;;;;;;;;;18.60;60.50;;;;;;5051034;28;2194;-68
2022/04/30 04:00:34;;;;;;;;;;;18.60;60.50;;;;;;5052462;28;1870;-68
2022/04/30 04:02:59;;;;;;;;;;;18.60;60.50;;;;;;5052853;28;1017;-67
2022/04/30 04:05:26;;;;;;;;;;;18.60;61.20;;;;;;5052862;28;902;-67
2022/04/30 04:07:51;;;;;;;;;;;18.60;60.50;;;;;;5052790;28;851;-68
2022/04/30 04:10:16;;;;;;;;;;;18.60;60.50;;;;;;5052732;28;1292;-67
2022/04/30 04:12:42;;;;;;;;;;;18.60;60.50;;;;;;5051468;28;1131;-68
2022/04/30 04:17:52;;;;;;;;;;;18.60;60.50;;;;;;5044809;28;1121;-69
2022/04/30 04:20:24;;;;;;;;;;;18.60;60.50;;;;;;5052527;28;1965;-71
2022/04/30 04:22:50;;;;;;;;;;;18.60;60.50;;;;;;5051873;28;1288;-69
2022/04/30 04:28:00;;;;;;;;;;;18.60;60.50;;;;;;5052396;28;684;-71
2022/04/30 04:30:25;;;;;;;;;;;18.60;60.50;;;;;;5050932;28;1287;-71
2022/04/30 04:32:51;;;;;;;;;;;18.60;60.50;;;;;;5052563;28;1014;-67
2022/04/30 04:35:16;;;;;;;;;;;18.60;60.50;;;;;;5052296;28;1017;-68
2022/04/30 04:37:42;;;;;;;;;;;18.60;60.60;;;;;;5052052;28;1281;-70
2022/04/30 04:40:08;;;;;;;;;;;18.60;60.60;;;;;;5050778;28;1973;-71
2022/04/30 04:42:33;;;;;;;;;;;18.60;60.60;;;;;;5052200;28;853;-69
2022/04/30 04:44:59;;;;;;;;;;;18.60;60.60;;;;;;5052012;28;803;-69
2022/04/30 04:47:24;;;;;;;;;;;18.60;60.60;;;;;;5051839;28;764;-69
2022/04/30 04:49:49;;;;;;;;;;;18.60;60.60;;;;;;5054856;28;1271;-68
2022/04/30 04:52:15;;;;;;;;;;;18.60;60.60;;;;;;5055793;28;828;-69
2022/04/30 04:54:40;;;;;;;;;;;18.60;60.60;;;;;;5055887;28;795;-68
2022/04/30 04:57:06;;;;;;;;;;;18.60;60.60;;;;;;5055512;28;927;-69
2022/04/30 04:59:31;;;;;;;;;;;18.60;60.60;;;;;;5055557;28;1960;-69
2022/04/30 05:01:57;;;;;;;;;;;18.60;60.60;;;;;;5055696;28;891;-68
2022/04/30 05:04:24;;;;;;;;;;;18.60;60.60;;;;;;5055764;28;899;-69
2022/04/30 05:06:50;;;;;;;;;;;18.60;60.60;;;;;;5055655;28;914;-69
2022/04/30 05:09:15;;;;;;;;;;;18.60;60.50;;;;;;5051978;28;1577;-68
2022/04/30 05:11:41;;;;;;;;;;;18.60;60.50;;;;;;5074220;28;1341;-67
2022/04/30 05:14:06;;;;;;;;;;;18.60;60.50;;;;;;5058213;28;1466;-69
2022/04/30 05:16:32;;;;;;;;;;;18.60;60.30;;;;;;5056127;28;803;-71
2022/04/30 05:18:57;;;;;;;;;;;18.70;60.30;;;;;;5054995;28;1310;-72
2022/04/30 05:21:23;;;;;;;;;;;18.70;60.20;;;;;;5055262;28;1906;-72
2022/04/30 05:23:49;;;;;;;;;;;18.80;60.10;;;;;;5054119;28;831;-71
2022/04/30 05:26:14;;;;;;;;;;;18.80;59.90;;;;;;5054112;28;824;-72
2022/04/30 05:28:40;;;;;;;;;;;18.90;59.80;;;;;;5070227;28;1323;-72
2022/04/30 05:31:05;;;;;;;;;;;19.00;59.60;;;;;;5055068;28;919;-72
2022/04/30 05:33:37;;;;;;;;;;;19.10;59.50;;;;;;5055119;28;843;-70
2022/04/30 05:36:02;;;;;;;;;;;19.20;59.40;;;;;;5055110;28;945;-71
2022/04/30 05:38:28;;;;;;;;;;;19.30;59.20;;;;;;5076628;22;2024;-72
2022/04/30 05:40:53;;;;;;;;;;;19.40;59.00;;;;;;5033297;28;1910;-72
2022/04/30 05:43:19;;;;;;;;;;;19.50;58.80;;;;;;5035009;28;788;-73
2022/04/30 05:45:45;;;;;;;;;;;19.50;58.60;;;;;;5033798;28;899;-72
2022/04/30 05:48:10;;;;;;;;;;;19.60;58.40;;;;;;5034546;28;804;-71
2022/04/30 05:50:36;;;;;;;;;;;19.60;58.20;;;;;;5035195;28;1190;-69
2022/04/30 05:53:01;;;;;;;;;;;19.70;58.10;;;;;;5033595;28;975;-69
2022/04/30 05:55:27;;;;;;;;;;;19.70;58.00;;;;;;5033762;28;1505;-69
2022/04/30 05:57:53;;;;;;;;;;;19.80;57.80;;;;;;5033100;28;767;-70
2022/04/30 06:00:18;;;;;;;;;;;19.80;57.70;;;;;;5032462;28;1957;-70
2022/04/30 06:02:44;;;;;;;;;;;19.80;57.60;;;;;;5033857;28;771;-69
2022/04/30 06:05:10;;;;;;;;;;;19.90;57.60;;;;;;5033927;28;891;-70
2022/04/30 06:07:36;;;;;;;;;;;19.80;57.50;;;;;;5031742;28;1025;-69
2022/04/30 06:10:04;;;;;;;;;;;19.90;57.50;;;;;;5015544;28;1575;-70
2022/04/30 06:12:29;;;;;;;;;;;19.90;57.50;;;;;;5014156;28;1155;-69
2022/04/30 06:14:55;;;;;;;;;;;19.90;57.40;;;;;;5013723;28;729;-69
2022/04/30 06:17:21;;;;;;;;;;;19.90;57.40;;;;;;5014461;28;970;-70
2022/04/30 06:19:46;;;;;;;;;;;19.90;57.40;;;;;;5014259;28;1927;-70
2022/04/30 06:22:12;;;;;;;;;;;19.90;57.40;;;;;;5014470;28;724;-69
2022/04/30 06:24:37;;;;;;;;;;;19.90;57.40;;;;;;5014485;28;853;-70
2022/04/30 06:27:03;;;;;;;;;;;19.90;57.40;;;;;;5013043;28;888;-71
2022/04/30 06:29:28;;;;;;;;;;;19.90;57.40;;;;;;5014398;28;1261;-70
2022/04/30 06:31:55;;;;;;;;;;;19.90;57.40;;;;;;5014284;28;871;-69
2022/04/30 06:34:21;;;;;;;;;;;19.90;57.40;;;;;;5014181;28;811;-68
2022/04/30 06:36:46;;;;;;;;;;;19.90;57.50;;;;;;5018765;28;1131;-71
2022/04/30 06:39:12;;;;;;;;;;;19.90;57.40;;;;;;5033688;28;1959;-71
2022/04/30 06:41:37;;;;;;;;;;;19.90;57.40;;;;;;5033930;28;847;-71
2022/04/30 06:44:03;;;;;;;;;;;19.90;57.50;;;;;;5033949;28;816;-71
2022/04/30 06:46:28;;;;;;;;;;;19.90;57.50;;;;;;5034458;28;989;-71
2022/04/30 06:48:54;;;;;;;;;;;19.80;57.40;;;;;;5032505;28;1223;-72
2022/04/30 06:51:19;;;;;;;;;;;19.90;57.50;;;;;;5033361;28;772;-72
2022/04/30 06:59:12;;;;;;;;;;;19.90;57.60;;;;;;5024567;28;1894;-72
2022/04/30 07:01:44;;;;;;;;;;;19.80;57.60;;;;;;5012081;28;1486;-73
2022/04/30 07:04:10;;;;;;;;;;;19.80;57.60;;;;;;5010500;28;1887;-71
2022/04/30 07:06:36;;;;;;;;;;;19.80;57.50;;;;;;5010757;28;1073;-71
2022/04/30 07:09:02;;;;;;;;;;;19.90;58.20;;;;;;5013658;28;1225;-71
2022/04/30 07:11:27;;;;;;;;;;;19.80;57.60;;;;;;5013419;28;1075;-71
2022/04/30 07:13:53;;;;;;;;;;;19.80;57.60;;;;;;5012405;28;1124;-71
2022/04/30 07:16:19;;;;;;;;;;;19.80;57.60;;;;;;5012111;28;1273;-71
2022/04/30 07:18:44;;;;;;;;;;;19.80;57.70;;;;;;4995370;28;1394;-71
2022/04/30 07:21:09;;;;;;;;;;;19.80;57.70;;;;;;5013532;28;1903;-72
2022/04/30 07:23:35;;;;;;;;;;;19.80;57.70;;;;;;5013651;28;811;-71
2022/04/30 07:26:00;;;;;;;;;;;19.80;57.70;;;;;;5012139;28;799;-71
2022/04/30 07:28:30;;;;;;;;;;;19.80;57.80;;;;;;5013048;28;1217;-70
2022/04/30 07:30:55;;;;;;;;;;;19.80;57.80;;;;;;5013373;28;843;-70
2022/04/30 07:33:21;;;;;;;;;;;19.80;57.80;;;;;;5013427;28;937;-69
2022/04/30 07:35:46;;;;;;;;;;;19.80;57.90;;;;;;5013420;28;863;-72
2022/04/30 07:38:11;;;;;;;;;;;19.70;57.80;;;;;;5013066;28;1230;-72
2022/04/30 07:40:38;;;;;;;;;;;19.70;57.80;;;;;;5011861;28;1977;-72
2022/04/30 07:43:04;;;;;;;;;;;19.70;57.80;;;;;;5005263;28;2364;-72
2022/04/30 07:45:30;;;;;;;;;;;19.70;57.90;;;;;;5002223;28;1264;-72
2022/04/30 07:47:55;;;;;;;;;;;19.70;57.90;;;;;;5011040;28;887;-72
2022/04/30 07:50:22;;;;;;;;;;;19.70;57.90;;;;;;5011736;28;1228;-72
2022/04/30 07:52:47;;;;;;;;;;;19.70;57.90;;;;;;5012733;28;867;-71
2022/04/30 07:55:13;;;;;;;;;;;19.70;57.90;;;;;;5011434;28;1029;-72
2022/04/30 07:57:38;;;;;;;;;;;19.70;57.90;;;;;;5011315;28;966;-71
2022/04/30 08:00:04;;;;;;;;;;;19.70;57.90;;;;;;5012815;28;1910;-71
2022/04/30 08:02:30;;;;;;;;;;;19.70;58.00;;;;;;5012376;28;828;-72
2022/04/30 08:04:58;;;;;;;;;;;19.70;58.00;;;;;;5013391;28;689;-72
2022/04/30 08:07:23;;;;;;;;;;;19.70;58.00;;;;;;5012905;28;1097;-72
2022/04/30 08:09:49;;;;;;;;;;;19.70;58.00;;;;;;5012659;28;1533;-72
2022/04/30 08:12:14;;;;;;;;;;;19.60;58.00;;;;;;5011546;28;1419;-72
2022/04/30 08:14:40;;;;;;;;;;;19.70;58.60;;;;;;5011542;28;878;-72
2022/04/30 08:17:05;;;;;;;;;;;19.70;58.00;;;;;;5012557;28;855;-72
2022/04/30 08:19:31;;;;;;;;;;;19.70;58.00;;;;;;5012848;28;1966;-73
2022/04/30 08:21:56;;;;;;;;;;;19.70;58.10;;;;;;5013147;28;874;-73
2022/04/30 08:24:21;;;;;;;;;;;19.70;58.10;;;;;;5013828;28;927;-72
2022/04/30 08:26:49;;;;;;;;;;;19.70;58.10;;;;;;5016882;28;927;-72
2022/04/30 08:29:15;;;;;;;;;;;19.70;58.60;;;;;;5014155;28;1461;-72
2022/04/30 08:31:40;;;;;;;;;;;19.70;58.00;;;;;;5016565;28;815;-71
2022/04/30 08:34:05;;;;;;;;;;;19.70;58.00;;;;;;5001800;28;958;-72
2022/04/30 08:36:31;;;;;;;;;;;19.70;58.00;;;;;;5018768;28;1387;-72
2022/04/30 08:38:56;;;;;;;;;;;19.70;57.90;;;;;;5016021;28;1255;-72
2022/04/30 08:41:22;;;;;;;;;;;19.70;57.90;;;;;;5016188;28;1902;-72
2022/04/30 08:43:48;;;;;;;;;;;19.70;57.90;;;;;;5016105;28;1107;-72
2022/04/30 08:46:13;;;;;;;;;;;19.70;57.90;;;;;;5016553;28;740;-72
2022/04/30 08:48:39;;;;;;;;;;;19.70;57.90;;;;;;5015903;28;1225;-72
2022/04/30 08:51:04;;;;;;;;;;;19.80;57.90;;;;;;5016194;28;788;-72
2022/04/30 08:53:29;;;;;;;;;;;19.70;57.80;;;;;;5014949;28;828;-72
2022/04/30 08:55:55;;;;;;;;;;;19.80;57.90;;;;;;5014927;28;844;-72
2022/04/30 08:58:20;;;;;;;;;;;19.80;57.80;;;;;;5015807;28;1208;-73
2022/04/30 09:00:47;;;;;;;;;;;19.80;57.80;;;;;;5016209;28;1894;-72
2022/04/30 09:03:16;;;;;;;;;;;19.80;57.80;;;;;;5015189;28;863;-72
2022/04/30 09:05:41;;;;;;;;;;;19.80;57.80;;;;;;5015084;28;1014;-72
2022/04/30 09:08:07;;;;;;;;;;;19.80;57.80;;;;;;5014802;28;1182;-71
2022/04/30 09:10:33;;;;;;;;;;;19.80;57.80;;;;;;5014459;28;1280;-73
2022/04/30 09:13:05;;;;;;;;;;;19.80;57.80;;;;;;5020992;28;1111;-72
2022/04/30 09:15:31;;;;;;;;;;;19.80;57.80;;;;;;5035643;28;811;-72
2022/04/30 09:18:00;;;;;;;;;;;19.80;57.80;;;;;;5035481;28;855;-72
2022/04/30 09:20:25;;;;;;;;;;;19.80;57.80;;;;;;5035711;28;1910;-72
2022/04/30 09:22:51;;;;;;;;;;;19.80;57.90;;;;;;5034433;28;1133;-72
2022/04/30 09:25:17;;;;;;;;;;;19.70;57.80;;;;;;5035113;28;953;-71
2022/04/30 09:27:50;;;;;;;;;;;19.70;57.80;;;;;;5035315;28;894;-72
2022/04/30 09:30:24;;;;;;;;;;;19.80;57.90;;;;;;5033990;28;1231;-71
2022/04/30 09:32:59;;;;;;;;;;;19.80;57.90;;;;;;5015341;28;1273;-70
2022/04/30 09:38:08;;;;;;;;;;;19.70;57.90;;;;;;5030976;28;1139;-71
2022/04/30 09:40:34;;;;;;;;;;;19.70;57.90;;;;;;5034912;28;1906;-72
2022/04/30 09:43:01;;;;;;;;;;;19.70;58.00;;;;;;5035217;28;784;-72
2022/04/30 09:45:29;;;;;;;;;;;19.70;58.00;;;;;;5012202;28;1589;-71
2022/04/30 09:47:55;;;;;;;;;;;19.70;58.00;;;;;;5014792;28;973;-71
2022/04/30 09:55:53;;;;;;;;;;;19.60;58.10;;;;;;5015060;28;691;-73
2022/04/30 09:58:24;;;;;;;;;;;19.60;58.10;;;;;;5013726;28;1304;-72
2022/04/30 10:00:51;;;;;;;;;;;19.60;58.20;;;;;;5014702;28;1910;-72
2022/04/30 10:03:17;;;;;;;;;;;19.60;58.20;;;;;;5013938;28;800;-72
2022/04/30 10:05:42;;;;;;;;;;;19.60;58.20;;;;;;5014838;28;762;-72
2022/04/30 10:08:08;;;;;;;;;;;19.60;58.30;;;;;;5013381;28;1230;-72
2022/04/30 10:10:36;;;;;;;;;;;19.60;58.30;;;;;;5013719;28;1286;-72
2022/04/30 10:13:05;;;;;;;;;;;19.60;58.40;;;;;;4997214;28;1333;-72
2022/04/30 10:15:37;;;;;;;;;;;19.60;58.40;;;;;;5013463;28;1101;-72
2022/04/30 10:18:03;;;;;;;;;;;19.50;58.40;;;;;;5013194;28;1254;-72
2022/04/30 10:20:32;;;;;;;;;;;19.50;58.40;;;;;;5013320;28;1965;-72
2022/04/30 10:22:59;;;;;;;;;;;19.50;58.50;;;;;;5014662;28;781;-72
2022/04/30 10:25:34;;;;;;;;;;;19.50;58.50;;;;;;5013345;28;895;-72
2022/04/30 10:28:04;;;;;;;;;;;19.50;58.60;;;;;;5014223;28;761;-72
2022/04/30 10:30:29;;;;;;;;;;;19.50;58.60;;;;;;5014371;28;1259;-72
2022/04/30 10:32:57;;;;;;;;;;;19.50;58.60;;;;;;5014332;28;694;-72
2022/04/30 10:35:29;;;;;;;;;;;19.40;58.60;;;;;;5013107;28;918;-72
2022/04/30 10:38:04;;;;;;;;;;;19.40;58.60;;;;;;5026643;28;1210;-72
2022/04/30 10:40:36;;;;;;;;;;;19.40;58.70;;;;;;5033783;28;1902;-72
2022/04/30 10:43:01;;;;;;;;;;;19.40;58.70;;;;;;5034153;28;927;-72
2022/04/30 10:45:28;;;;;;;;;;;19.40;58.80;;;;;;5033990;28;859;-72
2022/04/30 10:47:54;;;;;;;;;;;19.40;58.80;;;;;;5033284;28;1049;-72
2022/04/30 10:50:20;;;;;;;;;;;19.40;58.80;;;;;;5033731;28;1211;-72
2022/04/30 10:52:48;;;;;;;;;;;19.40;58.90;;;;;;5033544;28;911;-72
2022/04/30 10:55:14;;;;;;;;;;;19.40;58.90;;;;;;5034021;28;796;-72
2022/04/30 10:57:40;;;;;;;;;;;19.40;58.90;;;;;;5032117;28;911;-72
2022/04/30 11:00:05;;;;;;;;;;;19.30;58.90;;;;;;5033646;28;1898;-72
2022/04/30 11:02:31;;;;;;;;;;;19.40;59.00;;;;;;5033459;28;1045;-72
2022/04/30 11:04:57;;;;;;;;;;;19.30;59.00;;;;;;5032347;28;819;-72
2022/04/30 11:07:22;;;;;;;;;;;19.30;59.00;;;;;;5033129;28;711;-72
2022/04/30 11:09:48;;;;;;;;;;;19.30;59.10;;;;;;5017331;28;1373;-72
2022/04/30 11:12:14;;;;;;;;;;;19.30;59.10;;;;;;5013643;28;1187;-72
2022/04/30 11:14:40;;;;;;;;;;;19.30;59.10;;;;;;5033255;28;862;-72
2022/04/30 11:17:06;;;;;;;;;;;19.20;59.10;;;;;;5033001;28;982;-72
2022/04/30 11:19:31;;;;;;;;;;;19.30;59.20;;;;;;5033046;28;1949;-72
2022/04/30 11:21:58;;;;;;;;;;;19.30;59.20;;;;;;5033309;28;736;-72
2022/04/30 11:24:29;;;;;;;;;;;19.30;59.20;;;;;;5033469;28;930;-72
2022/04/30 11:26:55;;;;;;;;;;;19.20;59.20;;;;;;5031798;28;1292;-72
2022/04/30 11:29:21;;;;;;;;;;;19.20;59.20;;;;;;5033717;28;1331;-72
2022/04/30 11:31:48;;;;;;;;;;;19.20;59.30;;;;;;5033056;28;1021;-72
2022/04/30 11:34:17;;;;;;;;;;;19.20;59.30;;;;;;5023851;28;2066;-72
2022/04/30 11:36:43;;;;;;;;;;;19.20;59.30;;;;;;5009297;28;1071;-72
2022/04/30 11:39:09;;;;;;;;;;;19.20;59.40;;;;;;5042679;22;3679;-68
2022/04/30 11:41:41;;;;;;;;;;;19.20;59.40;;;;;;5064297;28;1910;-68
2022/04/30 11:44:10;;;;;;;;;;;19.20;59.40;;;;;;5051606;28;821;-68
2022/04/30 11:46:36;;;;;;;;;;;19.20;59.40;;;;;;5051396;28;848;-68
2022/04/30 11:49:06;;;;;;;;;;;19.10;59.40;;;;;;5051083;28;1209;-69
2022/04/30 11:51:31;;;;;;;;;;;19.10;59.50;;;;;;5051358;28;772;-68
2022/04/30 11:53:57;;;;;;;;;;;19.10;59.50;;;;;;5052687;28;945;-68
2022/04/30 11:56:22;;;;;;;;;;;19.10;59.50;;;;;;5051403;28;842;-68
2022/04/30 11:58:48;;;;;;;;;;;19.10;59.50;;;;;;5050327;28;1198;-68
2022/04/30 12:01:20;;;;;;;;;;;19.10;59.50;;;;;;5051368;28;1962;-69
2022/04/30 12:03:45;;;;;;;;;;;19.10;59.50;;;;;;5051601;28;1702;-69
2022/04/30 12:06:11;;;;;;;;;;;19.10;59.60;;;;;;5052670;28;763;-69
2022/04/30 12:08:36;;;;;;;;;;;19.10;59.60;;;;;;5057226;28;1213;-69
2022/04/30 12:11:01;;;;;;;;;;;19.10;59.60;;;;;;5072506;28;1165;-70
2022/04/30 12:13:28;;;;;;;;;;;19.00;59.60;;;;;;5072528;28;1119;-69
2022/04/30 12:16:06;;;;;;;;;;;19.10;59.60;;;;;;5072572;28;842;-70
2022/04/30 12:27:03;;;;;;;;;;;19.10;59.70;;;;;;5071622;28;622;-69
2022/04/30 12:29:30;;;;;;;;;;;19.10;59.70;;;;;;5072472;28;1234;-69
2022/04/30 12:31:55;;;;;;;;;;;19.00;59.70;;;;;;5072463;28;771;-70
2022/04/30 12:34:21;;;;;;;;;;;19.00;59.70;;;;;;5071160;28;918;-70
2022/04/30 12:36:56;;;;;;;;;;;19.00;59.70;;;;;;5067535;28;1110;-70
2022/04/30 12:39:23;;;;;;;;;;;19.00;59.70;;;;;;5052185;28;1914;-69
2022/04/30 12:41:48;;;;;;;;;;;19.00;59.80;;;;;;5051127;28;894;-69
2022/04/30 12:44:15;;;;;;;;;;;19.00;59.80;;;;;;5052142;28;866;-69
2022/04/30 12:46:46;;;;;;;;;;;19.00;59.80;;;;;;5050785;28;1223;-69
2022/04/30 12:49:12;;;;;;;;;;;19.00;59.80;;;;;;5050665;28;1303;-69
2022/04/30 12:51:38;;;;;;;;;;;19.00;59.90;;;;;;5050708;28;783;-69
2022/04/30 12:54:04;;;;;;;;;;;19.00;59.90;;;;;;5052225;28;811;-69
2022/04/30 12:56:31;;;;;;;;;;;19.00;59.90;;;;;;5050919;28;1096;-69
2022/04/30 12:58:56;;;;;;;;;;;19.00;59.90;;;;;;5051832;28;1189;-68
2022/04/30 13:01:21;;;;;;;;;;;18.90;59.90;;;;;;5051859;28;1968;-68
2022/04/30 13:03:48;;;;;;;;;;;18.90;59.90;;;;;;5051942;28;958;-69
2022/04/30 13:06:14;;;;;;;;;;;19.00;60.00;;;;;;5051867;28;757;-69
2022/04/30 13:14:08;;;;;;;;;;;18.90;59.90;;;;;;5060195;28;1078;-69
2022/04/30 13:16:33;;;;;;;;;;;18.90;59.90;;;;;;5055481;28;859;-69
2022/04/30 13:18:58;;;;;;;;;;;18.90;60.00;;;;;;5053910;28;1286;-69
2022/04/30 13:21:24;;;;;;;;;;;18.90;60.00;;;;;;5055319;28;1902;-68
2022/04/30 13:23:49;;;;;;;;;;;18.90;60.00;;;;;;5055494;28;970;-68
2022/04/30 13:26:15;;;;;;;;;;;18.90;60.00;;;;;;5054171;28;795;-69
2022/04/30 13:28:40;;;;;;;;;;;18.90;60.00;;;;;;5055055;28;564;-69
2022/04/30 13:31:06;;;;;;;;;;;18.90;60.00;;;;;;5055530;28;1318;-69
2022/04/30 13:33:31;;;;;;;;;;;18.90;60.00;;;;;;5055203;28;839;-69
2022/04/30 13:35:56;;;;;;;;;;;18.90;60.00;;;;;;5054025;28;835;-68
2022/04/30 13:38:22;;;;;;;;;;;18.90;60.10;;;;;;5054820;28;1095;-69
2022/04/30 13:40:48;;;;;;;;;;;18.90;60.10;;;;;;5053728;28;1906;-68
2022/04/30 13:43:15;;;;;;;;;;;18.90;60.10;;;;;;5055096;28;877;-68
2022/04/30 13:45:40;;;;;;;;;;;18.90;60.10;;;;;;5054981;28;839;-68
2022/04/30 13:48:06;;;;;;;;;;;18.80;60.10;;;;;;5054609;28;906;-69
2022/04/30 13:50:32;;;;;;;;;;;18.90;60.10;;;;;;5053802;28;1227;-68
2022/04/30 13:52:58;;;;;;;;;;;18.90;60.10;;;;;;5054822;28;875;-69
2022/04/30 13:55:23;;;;;;;;;;;18.90;60.20;;;;;;5054916;28;799;-69
2022/04/30 13:57:49;;;;;;;;;;;18.90;60.20;;;;;;5066418;28;2370;-69
2022/04/30 14:00:20;;;;;;;;;;;18.90;60.20;;;;;;5065713;28;1965;-68
2022/04/30 14:02:46;;;;;;;;;;;18.90;60.20;;;;;;5073541;28;1134;-69
2022/04/30 14:05:11;;;;;;;;;;;18.90;60.20;;;;;;5068703;28;1278;-68
2022/04/30 14:07:37;;;;;;;;;;;18.90;60.20;;;;;;5072446;28;1266;-68
2022/04/30 14:10:03;;;;;;;;;;;18.90;60.30;;;;;;5058008;28;1205;-69
2022/04/30 14:12:28;;;;;;;;;;;18.90;60.30;;;;;;5042019;28;1272;-69
2022/04/30 14:14:57;;;;;;;;;;;18.80;60.30;;;;;;5053089;28;810;-69
2022/04/30 14:20:07;;;;;;;;;;;18.90;60.30;;;;;;5053308;28;1914;-68
2022/04/30 14:22:35;;;;;;;;;;;18.80;60.30;;;;;;5052394;28;1021;-69
2022/04/30 14:25:01;;;;;;;;;;;18.80;60.30;;;;;;5054289;28;926;-69
2022/04/30 14:27:27;;;;;;;;;;;18.80;60.30;;;;;;5053793;28;859;-69
2022/04/30 14:29:52;;;;;;;;;;;18.80;60.30;;;;;;5054065;28;1155;-69
2022/04/30 14:32:20;;;;;;;;;;;18.80;60.30;;;;;;5054098;28;768;-68
2022/04/30 14:34:46;;;;;;;;;;;18.80;60.30;;;;;;5052992;28;847;-69
2022/04/30 14:37:12;;;;;;;;;;;18.80;61.10;;;;;;5060637;28;1166;-69
2022/04/30 14:39:40;;;;;;;;;;;18.80;60.30;;;;;;5072658;28;1910;-69
2022/04/30 14:42:07;;;;;;;;;;;18.80;60.40;;;;;;5074273;28;894;-69
2022/04/30 14:44:33;;;;;;;;;;;18.80;60.40;;;;;;5073384;28;811;-69
2022/04/30 14:46:58;;;;;;;;;;;18.80;60.40;;;;;;5074074;28;1084;-70
2022/04/30 14:49:23;;;;;;;;;;;18.80;60.40;;;;;;5073992;28;1234;-69
2022/04/30 14:51:49;;;;;;;;;;;18.80;60.40;;;;;;5073977;28;1025;-68
2022/04/30 14:54:15;;;;;;;;;;;18.80;60.40;;;;;;5074048;28;780;-68
2022/04/30 14:56:42;;;;;;;;;;;18.80;60.40;;;;;;5073887;28;847;-69
2022/04/30 14:59:08;;;;;;;;;;;18.80;60.40;;;;;;5073911;28;1277;-68
2022/04/30 15:01:34;;;;;;;;;;;18.80;60.50;;;;;;5073788;28;1983;-69
2022/04/30 15:03:59;;;;;;;;;;;18.80;60.50;;;;;;5073829;28;1065;-68
2022/04/30 15:06:25;;;;;;;;;;;18.80;60.50;;;;;;5073748;28;891;-68
2022/04/30 15:08:50;;;;;;;;;;;18.80;60.40;;;;;;5066434;28;1282;-68
2022/04/30 15:11:16;;;;;;;;;;;18.80;60.50;;;;;;5052633;28;891;-68
2022/04/30 15:13:41;;;;;;;;;;;18.80;60.50;;;;;;5065743;28;1122;-67
2022/04/30 15:16:07;;;;;;;;;;;18.80;60.50;;;;;;5073787;28;942;-68
2022/04/30 15:18:32;;;;;;;;;;;18.80;60.50;;;;;;5073358;28;699;-68
2022/04/30 15:20:57;;;;;;;;;;;18.80;60.50;;;;;;5073374;28;1959;-68
2022/04/30 15:23:23;;;;;;;;;;;18.80;60.50;;;;;;5073561;28;706;-68